createdAt,value
2018-09-27T00:06:31.347Z,12.60
2018-09-27T00:09:08.025Z,12.40
2018-09-27T00:11:42.440Z,12.40
2018-09-27T00:14:17.473Z,12.50
2018-09-27T00:16:50.512Z,12.50
2018-09-27T00:36:44.443Z,12.30
2018-09-27T00:39:19.473Z,12.30
2018-09-27T00:41:53.484Z,12.30
2018-09-27T00:44:29.542Z,12.30
2018-09-27T00:47:04.371Z,12.20
2018-09-27T01:06:58.766Z,12.10
2018-09-27T01:09:35.234Z,12.10
2018-09-27T01:12:10.466Z,12.10
2018-09-27T01:14:45.505Z,12.20
2018-09-27T01:17:19.514Z,12.20
2018-09-27T01:19:54.546Z,12.20
2018-09-27T01:22:28.555Z,12.10
2018-09-27T01:42:22.540Z,12.00
2018-09-27T01:44:57.575Z,12.00
2018-09-27T01:47:32.400Z,12.10
2018-09-27T02:07:26.588Z,11.80
2018-09-27T02:10:00.394Z,11.80
2018-09-27T02:12:35.632Z,11.80
2018-09-27T02:15:10.460Z,11.90
2018-09-27T02:17:44.473Z,11.90
2018-09-27T02:37:37.435Z,11.70
2018-09-27T02:40:13.485Z,11.70
2018-09-27T02:42:47.498Z,11.70
2018-09-27T02:45:21.508Z,11.70
2018-09-27T02:47:56.542Z,11.60
2018-09-27T03:07:47.448Z,11.50
2018-09-27T03:10:23.508Z,11.60
2018-09-27T03:12:58.134Z,11.60
2018-09-27T03:15:32.552Z,11.60
2018-09-27T03:18:07.585Z,11.60
2018-09-27T03:37:59.517Z,11.40
2018-09-27T03:40:34.589Z,11.50
2018-09-27T03:43:09.588Z,11.40
2018-09-27T03:45:43.597Z,11.40
2018-09-27T03:48:18.631Z,11.30
2018-09-27T04:28:13.560Z,11.10
2018-09-27T04:30:47.366Z,11.10
2018-09-27T05:10:45.577Z,10.80
2018-09-27T05:13:23.082Z,10.80
2018-09-27T05:33:15.609Z,10.80
2018-09-27T05:35:50.645Z,10.70
2018-09-27T05:38:25.679Z,10.80
2018-09-27T05:41:04.085Z,10.80
2018-09-27T05:43:37.589Z,10.90
2018-09-27T06:03:31.814Z,11.30
2018-09-27T06:06:07.632Z,11.30
2018-09-27T06:08:44.098Z,11.30
2018-09-27T06:28:39.715Z,11.70
2018-09-27T06:31:15.571Z,11.70
2018-09-27T06:51:12.697Z,12.10
2018-09-27T06:56:40.792Z,12.30
2018-09-27T07:16:32.446Z,12.70
2018-09-27T07:19:06.659Z,12.80
2018-09-27T07:21:41.898Z,13.00
2018-09-27T07:41:35.677Z,13.10
2018-09-27T07:44:14.601Z,13.20
2018-09-27T08:04:09.034Z,13.70
2018-09-27T08:24:01.765Z,14.10
2018-09-27T08:26:35.819Z,14.10
2018-09-27T08:46:30.766Z,14.10
2018-09-27T08:49:07.647Z,14.20
2018-09-27T08:51:43.728Z,14.40
2018-09-27T09:11:36.661Z,14.70
2018-09-27T09:14:11.694Z,14.80
2018-09-27T09:16:46.728Z,14.90
2018-09-27T09:19:21.979Z,15.10
2018-09-27T09:22:01.713Z,15.10
2018-09-27T09:24:36.802Z,15.10
2018-09-27T09:27:12.799Z,15.20
2018-09-27T09:47:08.495Z,15.60
2018-09-27T09:49:46.736Z,15.70
2018-09-27T09:52:21.971Z,15.70
2018-09-27T10:12:18.828Z,15.90
2018-09-27T10:14:53.651Z,15.90
2018-09-27T10:34:48.659Z,16.50
2018-09-27T10:37:23.692Z,16.60
2018-09-27T10:40:02.624Z,16.60
2018-09-27T10:59:57.837Z,17.10
2018-09-27T11:02:32.668Z,17.20
2018-09-27T11:05:06.669Z,17.20
2018-09-27T11:07:40.674Z,17.30
2018-09-27T11:10:16.326Z,17.30
2018-09-27T11:30:13.790Z,17.60
2018-09-27T11:32:49.892Z,17.60
2018-09-27T11:52:43.834Z,17.80
2018-09-27T11:55:19.068Z,17.90
2018-09-27T11:57:52.876Z,17.90
2018-09-27T12:17:47.886Z,18.30
2018-09-27T12:20:24.963Z,18.30
2018-09-27T12:22:58.580Z,18.40
2018-09-27T12:25:33.604Z,18.40
2018-09-27T12:28:09.657Z,18.50
2018-09-27T12:48:05.730Z,18.70
2018-09-27T12:50:42.866Z,18.70
2018-09-27T12:53:16.824Z,18.80
2018-09-27T12:55:52.442Z,18.80
2018-09-27T12:58:28.981Z,18.90
2018-09-27T13:18:21.852Z,19.10
2018-09-27T13:20:56.682Z,19.10
2018-09-27T13:23:30.890Z,19.10
2018-09-27T13:43:24.674Z,19.50
2018-09-27T13:46:03.808Z,19.60
2018-09-27T14:06:00.039Z,19.70
2018-09-27T14:25:54.637Z,19.80
2018-09-27T14:28:30.079Z,19.80
2018-09-27T14:31:04.908Z,19.80
2018-09-27T14:33:39.941Z,19.90
2018-09-27T14:36:14.972Z,19.80
2018-09-27T14:56:09.166Z,20.20
2018-09-27T14:58:44.052Z,20.20
2018-09-27T15:21:30.011Z,20.80
2018-09-27T15:24:04.021Z,20.80
2018-09-27T15:26:41.108Z,20.80
2018-09-27T15:29:16.957Z,20.70
2018-09-27T15:31:53.013Z,20.80
2018-09-27T15:34:33.177Z,21.00
2018-09-27T15:37:09.426Z,21.20
2018-09-27T15:39:45.488Z,21.20
2018-09-27T15:42:21.133Z,21.00
2018-09-27T15:44:58.591Z,20.70
2018-09-27T15:47:33.042Z,20.50
2018-09-27T15:50:08.076Z,20.30
2018-09-27T15:52:43.111Z,20.10
2018-09-27T15:55:19.168Z,20.00
2018-09-27T15:57:54.219Z,20.00
2018-09-27T16:00:34.150Z,19.90
2018-09-27T16:03:09.388Z,19.70
2018-09-27T16:05:44.013Z,19.70
2018-09-27T16:08:18.224Z,19.60
2018-09-27T16:10:54.080Z,19.50
2018-09-27T16:13:33.006Z,19.50
2018-09-27T16:33:24.963Z,18.90
2018-09-27T16:36:00.994Z,18.80
2018-09-27T16:55:55.999Z,18.60
2018-09-27T16:58:34.106Z,18.50
2018-09-27T17:18:29.524Z,18.20
2018-09-27T17:38:23.098Z,17.60
2018-09-27T17:40:56.291Z,17.60
2018-09-27T17:43:31.137Z,17.50
2018-09-27T17:46:09.634Z,17.50
2018-09-27T17:48:45.281Z,17.50
2018-09-27T18:08:39.265Z,17.20
2018-09-27T18:11:14.686Z,17.20
2018-09-27T18:13:51.173Z,17.20
2018-09-27T18:33:59.090Z,16.60
2018-09-27T18:36:35.553Z,16.60
2018-09-27T18:56:28.304Z,16.30
2018-09-27T18:59:03.138Z,16.30
2018-09-27T19:01:38.375Z,16.30
2018-09-27T19:04:13.204Z,16.20
2018-09-27T19:06:51.105Z,16.20
2018-09-27T19:26:49.395Z,16.10
2018-09-27T19:29:25.247Z,16.00
2018-09-27T19:49:18.405Z,15.90
2018-09-27T20:09:15.460Z,15.70
2018-09-27T20:11:52.851Z,15.80
2018-09-27T20:31:45.707Z,15.70
2018-09-27T20:34:19.319Z,15.60
2018-09-27T20:36:53.313Z,15.70
2018-09-27T20:56:46.480Z,15.50
2018-09-27T20:59:22.330Z,15.40
2018-09-27T21:01:57.366Z,15.30
2018-09-27T21:04:32.399Z,15.30
2018-09-27T21:07:08.251Z,15.30
2018-09-27T21:27:00.190Z,15.20
2018-09-27T21:29:35.426Z,15.10
2018-09-27T21:32:12.099Z,15.00
2018-09-27T21:34:46.925Z,15.00
2018-09-27T21:37:22.369Z,15.00
2018-09-27T21:57:15.534Z,14.90
2018-09-27T21:59:49.543Z,14.90
2018-09-27T22:19:44.757Z,15.00
2018-09-27T22:22:20.814Z,14.90
2018-09-27T22:24:55.645Z,14.80
2018-09-27T22:44:49.630Z,14.70
2018-09-27T22:47:24.454Z,14.70
2018-09-27T22:49:59.077Z,14.60
2018-09-27T22:52:33.702Z,14.60
2018-09-27T22:55:08.736Z,14.60
2018-09-27T23:15:02.722Z,14.50
2018-09-27T23:17:37.553Z,14.50
2018-09-27T23:37:31.737Z,14.40
2018-09-27T23:57:25.718Z,14.30
